• Join FlightAware (Why Join?)
  • Login
  • US Flag 
12:54PM EDT


 

Airport Tracker/Info


-or-


 

Live Flight TrackerFlight Track Log ✈ C-GGBL ✈ 15-Jul-2012 ✈ CYYF - CYVR

Flight Track Log - Related Links

Times and Time Zones

All times are in EDT time to prevent confusion due to time zone crossing. See the C-GGBL flight status page for this flight to view local times or setup timezone preferences in your user account.

Time Position Orientation Groundspeed Altitude Reporting Facility
EDT Latitude Longitude Course Direction KTS MPH feet Rate Location/Type
02:51PM 49.5000 -119.5833 348° North 180 207 4,800  Level Vancouver Center
02:52PM 49.5500 -119.6000 270° West 210 242 8,900 3,840 Climbing Vancouver Center
02:53PM 49.5500 -119.7000 270° West 260 299 12,500 3,600 Climbing Vancouver Center
02:54PM 49.5500 -119.8333 270° West 300 345 16,200 3,720 Climbing Vancouver Center
02:55PM 49.5500 -119.9833 270° West 330 380 20,000 3,300 Climbing Vancouver Center
02:56PM 49.5500 -120.1500 260° West 350 403 22,900 1,980 Climbing Vancouver Center
02:57PM 49.5333 -120.3000 270° West 380 437 24,000 540 Climbing Vancouver Center
02:58PM 49.5333 -120.4833 278° West 400 460 24,000  Level Vancouver Center
02:59PM 49.5500 -120.6667 261° West 410 472 24,000  Level Vancouver Center
03:00PM 49.5333 -120.8333 270° West 420 483 24,000  Level Vancouver Center
03:01PM 49.5333 -121.0167 270° West 430 495 24,000  Level Vancouver Center
03:02PM 49.5333 -121.2000 270° West 430 495 24,000  Level Vancouver Center
03:03PM 49.5333 -121.3833 254° West 420 483 24,000  Level Vancouver Center
03:04PM 49.5000 -121.5667 243° Southwest 420 483 24,000  Level Vancouver Center
03:05PM 49.4500 -121.7167 257° West 430 495 24,000  Level Vancouver Center
03:06PM 49.4167 -121.9333 270° West 440 506 24,000  Level Vancouver Center
03:07PM 49.4167 -122.0833 256° West 440 506 24,000 -840 Level Vancouver Center
03:08PM 49.3833 -122.2833 251° West 430 495 22,400 -2,160 Descending Vancouver Center
03:09PM 49.3500 -122.4333 254° West 420 483 19,700 -2,700 Descending Vancouver Center
03:10PM 49.3167 -122.6167 249° West 400 460 17,100 -2,460 Descending Vancouver Center
03:11PM 49.2833 -122.7500 251° West 370 426 14,800 -2,160 Descending Vancouver Center
03:12PM 49.2500 -122.9000 259° West 350 403 12,800 -2,100 Descending Vancouver Center
03:13PM 49.2333 -123.0333 281° West 320 368 10,700 -2,040 Descending Vancouver Center
03:14PM 49.2500 -123.1667 284° West 300 345 8,800 -1,920 Descending Vancouver Center
03:15PM 49.2667 -123.2667 282° West 290 334 6,900 -1,800 Descending Vancouver Center
03:16PM 49.2833 -123.3833 270° West 270 311 5,300 -1,500 Descending Vancouver Center
03:17PM 49.2833 -123.5000 192° South 260 299 4,000 -1,200 Descending Vancouver Center
03:18PM 49.2333 -123.5167 117° Southeast 240 276 3,000 -540 Descending Vancouver Center
03:19PM 49.2167 -123.4667 107° East 180 207 3,000 -240 Level Vancouver Center
03:20PM 49.2000 -123.3833 90° East 180 207 2,600 -720 Descending Vancouver Center
03:21PM 49.2000 -123.3167 117° Southeast 160 184 1,600 -900 Descending Vancouver Center
03:22PM 49.1833 -123.2667 117° Southeast 150 173 900 -720 Descending Vancouver Center